Healdsburg, CA

7:18 AM PDT on October 31, 2014 (GMT -0700)
Ukiah Municipal | Change Station
CLOSE
Current Station
Airport
Location: Ukiah,
Elevation: 614 ft
Nearby Weather Stations

Elev 614 ft 39.13 °N, 123.20 °W | Updated 13 minutes ago

Overcast
Overcast
56 °F
Feels Like 56 °F
N
0
Wind Variable Wind from North

Today
High -- | Low -- °F
--% Chance of Precip.
Yesterday
High -- | Low -- °F
Precip. -- in
7:37 AM 6:12 PM
First Quarter, 55% visible
Pressure 29.85 in
Visibility 4.0 miles
Clouds Scattered Clouds 1900 ft
Mostly Cloudy 3100 ft
Overcast 4600 ft
Dew Point 53 °F
Humidity 90%
Rainfall 0.35 in
Snow Depth Not available.
UV 0 out of 12
Pollen .50 out of 12
Air Quality Not available.
Flu Activity Not available.
SPECI KUKI 311405Z AUTO 00000KT 4SM -RA BR SCT019 BKN031 OVC046 13/12 A2985 RMK AO2 P0002 T01330117

More Conditions Fewer Conditions

Pressure 29.85 in
Visibility 4.0 miles
Clouds Scattered Clouds 1900 ft
Mostly Cloudy 3100 ft
Overcast 4600 ft
Dew Point 53 °F
Humidity 90%
Rainfall 0.35 in
Snow Depth Not available.
UV 0 out of 12
Pollen .50 out of 12
Air Quality Not available.
Flu Activity Not available.
SPECI KUKI 311405Z AUTO 00000KT 4SM -RA BR SCT019 BKN031 OVC046 13/12 A2985 RMK AO2 P0002 T01330117

More Conditions Fewer Conditions

10-Day Weather Forecast

Almanac

Astronomy

Oct. 31, 2014 Rise Set
Actual Time
Civil Twilight
Nautical Twilight
Astronomical Twilight
Moon
Length of Visible Light
Length of Day
Tomorrow will be .
, % of the Moon is Illuminated

Today's Extremes

State Highs State Lows

Community

WunderPhotos

Upload Photos

1,766,617 photos uploaded!

WunderBlogs® & News

Nearby

Air Quality

  Air Quality AQ Index Pollutant
Not available.

Snow Depth

Station Depth Elevation

Earthquake Activity

City Distance Mag. Time & Date
Minimum magnitude displayed is 2.5.

Coastal Water Temperatures

Place Temperature

Nearby Weather Stations